Time;durP1;ratioP1;P1;durP2;ratioP2;P2;SDS_P1;SDS_P2;PMS_P1;PMS_P2;Temp;Humidity;BMP_temperature;BMP_pressure;BME280_temperature;BME280_humidity;BME280_pressure;Samples;Min_cycle;Max_cycle;Signal;HPM_P1;HPM_P2
2021/10/15 00:03:00;;;;;;;26.77;23.50;;;14.10;99.90;;;;;;5132666;27;20209;-83
2021/10/15 00:05:28;;;;;;;28.60;24.00;;;14.10;99.90;;;;;;5128692;27;20254;-82
2021/10/15 00:07:56;;;;;;;29.20;24.50;;;14.10;99.90;;;;;;5139192;27;20205;-82
2021/10/15 00:10:24;;;;;;;32.50;24.27;;;14.10;99.90;;;;;;5138324;27;20209;-83
2021/10/15 00:16:15;;;;;;;28.08;22.40;;;14.10;99.90;;;;;;5126755;28;20176;-83
2021/10/15 00:18:42;;;;;;;29.20;21.15;;;14.20;99.90;;;;;;5137962;28;20218;-83
2021/10/15 00:21:32;;;;;;;24.88;21.75;;;14.10;99.90;;;;;;5129264;27;20207;-83
2021/10/15 00:23:59;;;;;;;27.30;21.08;;;14.10;99.90;;;;;;5131137;27;20208;-83
2021/10/15 00:26:37;;;;;;;23.48;18.92;;;14.10;99.90;;;;;;5133197;27;20193;-83
2021/10/15 00:29:05;;;;;;;23.73;19.40;;;14.10;99.90;;;;;;5136526;27;20229;-83
2021/10/15 00:32:09;;;;;;;22.13;19.00;;;14.10;99.90;;;;;;5137634;27;20216;-83
2021/10/15 00:34:39;;;;;;;21.65;18.95;;;14.10;99.90;;;;;;5131779;27;20223;-84
2021/10/15 00:37:20;;;;;;;32.20;19.20;;;14.10;99.90;;;;;;5105873;28;20198;-83
2021/10/15 00:39:55;;;;;;;26.15;19.08;;;14.00;99.90;;;;;;5134242;27;20221;-83
2021/10/15 00:48:06;;;;;;;23.60;19.98;;;14.00;99.90;;;;;;5111632;27;20210;-83
2021/10/15 00:50:35;;;;;;;24.65;18.90;;;14.00;99.90;;;;;;5107513;27;20564;-82
2021/10/15 00:53:17;;;;;;;24.63;16.55;;;14.00;99.90;;;;;;5128150;27;20214;-83
2021/10/15 00:58:55;;;;;;;25.90;19.65;;;14.00;99.90;;;;;;5118674;27;20225;-84
2021/10/15 01:04:57;;;;;;;26.58;19.90;;;13.90;99.90;;;;;;5096060;28;20205;-83
2021/10/15 01:07:41;;;;;;;24.13;20.60;;;13.90;99.90;;;;;;5077660;28;20213;-83
2021/10/15 01:10:08;;;;;;;23.95;20.02;;;13.90;99.90;;;;;;5067076;28;20249;-83
2021/10/15 01:12:40;;;;;;;28.08;23.02;;;13.80;99.90;;;;;;5112397;27;20200;-83
2021/10/15 01:15:07;;;;;;;29.75;23.10;;;13.80;99.90;;;;;;5135214;27;20217;-83
2021/10/15 01:17:34;;;;;;;28.75;22.15;;;13.80;99.90;;;;;;5117398;27;20190;-83
2021/10/15 01:20:35;;;;;;;27.15;23.55;;;13.80;99.90;;;;;;5119932;27;20259;-84
2021/10/15 01:23:09;;;;;;;25.15;21.52;;;13.80;99.90;;;;;;5120952;27;20201;-83
2021/10/15 01:25:38;;;;;;;25.90;22.50;;;13.80;99.90;;;;;;5122681;27;20210;-84
2021/10/15 01:28:06;;;;;;;26.35;20.27;;;13.80;99.90;;;;;;5130672;27;20221;-84
2021/10/15 01:30:33;;;;;;;25.65;22.05;;;13.80;99.90;;;;;;5122757;27;20223;-83
2021/10/15 01:33:00;;;;;;;28.90;20.98;;;13.90;99.90;;;;;;5129235;27;20208;-84
2021/10/15 01:35:28;;;;;;;29.48;20.17;;;13.80;99.90;;;;;;5109984;27;20197;-84
2021/10/15 01:37:55;;;;;;;26.20;22.00;;;13.80;99.90;;;;;;5115907;27;20197;-83
2021/10/15 01:40:36;;;;;;;25.08;20.88;;;13.80;99.90;;;;;;5121290;27;20238;-84
2021/10/15 01:43:06;;;;;;;29.20;20.65;;;13.80;99.90;;;;;;5124581;27;20206;-84
2021/10/15 01:46:24;;;;;;;27.45;20.98;;;13.80;99.90;;;;;;5113475;27;20201;-82
2021/10/15 01:49:20;;;;;;;24.20;19.23;;;13.80;99.90;;;;;;5118124;27;20248;-83
2021/10/15 01:51:48;;;;;;;21.38;18.50;;;13.80;99.90;;;;;;5109535;28;20623;-83
2021/10/15 01:54:51;;;;;;;25.23;19.60;;;13.80;99.90;;;;;;5120391;27;20581;-84
2021/10/15 01:57:49;;;;;;;24.38;19.92;;;13.80;99.90;;;;;;5113751;27;20205;-84
2021/10/15 02:00:53;;;;;;;24.27;18.95;;;13.60;99.90;;;;;;5099561;28;20235;-84
2021/10/15 02:06:44;;;;;;;21.20;17.10;;;13.80;99.90;;;;;;5110758;27;20191;-84
2021/10/15 02:09:18;;;;;;;22.40;18.17;;;13.80;99.90;;;;;;5124988;27;20225;-84
2021/10/15 02:11:55;;;;;;;21.45;16.73;;;13.70;99.90;;;;;;5118748;28;20197;-84
2021/10/15 02:14:43;;;;;;;24.38;17.55;;;13.80;99.90;;;;;;5126654;27;20196;-84
2021/10/15 02:17:13;;;;;;;20.02;17.15;;;13.80;99.90;;;;;;5125392;28;20198;-84
2021/10/15 02:19:40;;;;;;;19.83;16.48;;;13.80;99.90;;;;;;5118465;28;20224;-84
2021/10/15 02:22:19;;;;;;;21.13;18.58;;;13.80;99.90;;;;;;5123213;28;20197;-83
2021/10/15 02:25:13;;;;;;;19.63;16.60;;;13.70;99.90;;;;;;5124237;28;20227;-82
2021/10/15 02:27:40;;;;;;;20.90;15.82;;;13.80;99.90;;;;;;5115650;28;20205;-84
2021/10/15 02:30:24;;;;;;;20.30;15.43;;;13.70;99.90;;;;;;5122336;28;20677;-83
2021/10/15 02:32:54;;;;;;;20.77;15.18;;;13.80;99.90;;;;;;5135166;28;20559;-84
2021/10/15 02:35:27;;;;;;;23.98;14.55;;;13.70;99.90;;;;;;5110774;28;20205;-83
2021/10/15 02:38:10;;;;;;;21.90;16.45;;;13.70;99.90;;;;;;5103555;28;20213;-83
2021/10/15 02:40:37;;;;;;;18.80;15.50;;;13.70;99.90;;;;;;5114335;28;20261;-84
2021/10/15 02:43:12;;;;;;;20.45;16.38;;;13.70;99.90;;;;;;5108925;28;20205;-83
2021/10/15 02:45:40;;;;;;;15.98;13.82;;;13.70;99.90;;;;;;5138077;28;20200;-83
2021/10/15 02:48:13;;;;;;;21.92;14.70;;;13.70;99.90;;;;;;5114467;28;20222;-84
2021/10/15 02:50:50;;;;;;;19.05;14.65;;;13.70;99.90;;;;;;5124329;28;20207;-83
2021/10/15 02:53:30;;;;;;;16.65;13.63;;;13.70;99.90;;;;;;5120005;28;20216;-83
2021/10/15 02:55:57;;;;;;;19.52;16.17;;;13.60;99.90;;;;;;5120165;27;20203;-83
2021/10/15 02:58:24;;;;;;;15.77;13.25;;;13.70;99.90;;;;;;5116902;27;20209;-83
2021/10/15 03:01:02;;;;;;;17.63;14.63;;;13.70;99.90;;;;;;5122404;27;20205;-83
2021/10/15 03:03:34;;;;;;;21.02;15.15;;;13.70;99.90;;;;;;5136400;27;20200;-84
2021/10/15 03:06:14;;;;;;;24.67;17.70;;;13.60;99.90;;;;;;5128075;27;20200;-83
2021/10/15 03:11:57;;;;;;;18.77;15.75;;;13.60;99.90;;;;;;5092173;28;20551;-83
2021/10/15 03:14:27;;;;;;;19.30;15.25;;;13.60;99.90;;;;;;5125282;27;20580;-83
2021/10/15 03:16:56;;;;;;;19.33;15.65;;;13.60;99.90;;;;;;5138209;27;20204;-83
2021/10/15 03:19:24;;;;;;;22.23;14.75;;;13.60;99.90;;;;;;5120791;27;20215;-83
2021/10/15 03:21:51;;;;;;;17.30;15.18;;;13.60;99.90;;;;;;5138532;27;20201;-83
2021/10/15 03:24:19;;;;;;;19.02;15.15;;;13.60;99.90;;;;;;5126696;27;20201;-83
2021/10/15 03:26:53;;;;;;;18.42;15.80;;;13.60;99.90;;;;;;5124887;27;20202;-83
2021/10/15 03:29:23;;;;;;;21.83;16.58;;;13.60;99.90;;;;;;5113424;28;20239;-83
2021/10/15 03:32:43;;;;;;;26.05;18.27;;;13.50;99.90;;;;;;5122254;27;20202;-83
2021/10/15 03:35:17;;;;;;;18.95;15.60;;;13.50;99.90;;;;;;5116779;27;20231;-83
2021/10/15 03:37:45;;;;;;;23.25;16.95;;;13.60;99.90;;;;;;5117411;28;20197;-83
2021/10/15 03:40:13;;;;;;;17.45;15.52;;;13.50;99.90;;;;;;5114445;28;20217;-83
2021/10/15 03:42:40;;;;;;;19.00;16.92;;;13.50;99.90;;;;;;5116442;28;20193;-83
2021/10/15 03:45:13;;;;;;;28.20;14.90;;;13.50;99.90;;;;;;5118362;28;20287;-83
2021/10/15 03:47:42;;;;;;;18.10;16.05;;;13.50;99.90;;;;;;5111724;28;20198;-83
2021/10/15 03:50:18;;;;;;;19.17;15.10;;;13.50;99.90;;;;;;5125313;27;20288;-83
2021/10/15 03:52:45;;;;;;;20.80;17.35;;;13.50;99.90;;;;;;5128318;27;20763;-83
2021/10/15 03:55:14;;;;;;;18.85;16.67;;;13.50;99.90;;;;;;5115643;27;20204;-83
2021/10/15 03:57:42;;;;;;;22.30;16.05;;;13.50;99.90;;;;;;5129841;27;20199;-82
2021/10/15 04:00:21;;;;;;;21.83;16.45;;;13.50;99.90;;;;;;5145762;27;20204;-82
2021/10/15 04:02:50;;;;;;;22.73;17.23;;;13.50;99.90;;;;;;5137364;27;20200;-82
2021/10/15 04:05:17;;;;;;;19.20;15.85;;;13.50;99.90;;;;;;5132083;28;20201;-83
2021/10/15 04:07:50;;;;;;;19.70;15.55;;;13.50;99.90;;;;;;5122541;28;20193;-82
2021/10/15 04:10:30;;;;;;;24.70;17.15;;;13.50;99.90;;;;;;5134896;27;20224;-83
2021/10/15 04:12:58;;;;;;;19.63;15.27;;;13.50;99.90;;;;;;5128745;27;20202;-83
2021/10/15 04:15:47;;;;;;;18.50;15.30;;;13.50;99.90;;;;;;5119470;27;20212;-83
2021/10/15 04:18:22;;;;;;;16.67;13.82;;;13.50;99.90;;;;;;5127868;27;20200;-83
2021/10/15 04:20:49;;;;;;;20.20;14.80;;;13.40;99.90;;;;;;5117692;27;20200;-83
2021/10/15 04:23:18;;;;;;;19.60;13.63;;;13.40;99.90;;;;;;5119202;27;20219;-83
2021/10/15 04:25:45;;;;;;;19.52;15.93;;;13.40;99.90;;;;;;5121511;28;20204;-83
2021/10/15 04:28:18;;;;;;;18.50;16.50;;;13.30;99.90;;;;;;5120047;27;20208;-83
2021/10/15 04:30:46;;;;;;;24.60;16.05;;;13.30;99.90;;;;;;5126990;27;20220;-83
2021/10/15 04:39:46;;;;;;;19.70;14.93;;;13.30;99.90;;;;;;5122720;28;20213;-83
2021/10/15 04:42:19;;;;;;;18.90;13.40;;;13.30;99.90;;;;;;5120475;28;20212;-82
2021/10/15 04:44:46;;;;;;;21.50;15.30;;;13.30;99.90;;;;;;5126366;27;20263;-82
2021/10/15 04:47:14;;;;;;;20.77;15.65;;;13.30;99.90;;;;;;5121418;28;20198;-83
2021/10/15 04:49:55;;;;;;;22.13;15.63;;;13.30;99.90;;;;;;5125430;27;20285;-82
2021/10/15 04:52:22;;;;;;;17.52;15.73;;;13.30;99.90;;;;;;5116347;28;20609;-82
2021/10/15 04:54:49;;;;;;;15.98;14.25;;;13.30;99.90;;;;;;5126207;27;20197;-82
2021/10/15 04:57:16;;;;;;;16.70;14.73;;;13.30;99.90;;;;;;5127796;27;20196;-82
2021/10/15 04:59:43;;;;;;;19.23;15.55;;;13.30;99.90;;;;;;5133100;27;20230;-82
2021/10/15 05:02:10;;;;;;;17.92;15.75;;;13.30;99.90;;;;;;5124935;27;20192;-83
2021/10/15 05:04:39;;;;;;;15.60;13.60;;;13.30;99.90;;;;;;5114888;27;20204;-84
2021/10/15 05:07:08;;;;;;;20.05;14.93;;;13.30;99.90;;;;;;5119519;28;20618;-83
2021/10/15 05:09:45;;;;;;;18.55;14.80;;;13.30;99.90;;;;;;5119077;28;20218;-84
2021/10/15 05:12:14;;;;;;;23.15;14.98;;;13.30;99.90;;;;;;5116628;28;20565;-84
2021/10/15 05:14:43;;;;;;;19.55;14.57;;;13.30;99.90;;;;;;5132387;27;20205;-84
2021/10/15 05:17:10;;;;;;;18.25;14.93;;;13.30;99.90;;;;;;5129389;27;20231;-85
2021/10/15 05:19:40;;;;;;;14.13;12.63;;;13.40;99.90;;;;;;5108632;28;20218;-84
2021/10/15 05:22:19;;;;;;;22.65;13.88;;;13.30;99.90;;;;;;5128129;27;20211;-83
2021/10/15 05:24:46;;;;;;;15.55;13.07;;;13.30;99.90;;;;;;5117935;27;20211;-84
2021/10/15 05:27:18;;;;;;;15.77;14.05;;;13.40;99.90;;;;;;5121717;27;20207;-84
2021/10/15 05:29:47;;;;;;;17.70;14.55;;;13.30;99.90;;;;;;5123047;27;20873;-84
2021/10/15 05:32:15;;;;;;;14.10;12.13;;;13.30;99.90;;;;;;5113693;27;20224;-84
2021/10/15 05:34:53;;;;;;;16.73;11.43;;;13.30;99.90;;;;;;5124324;27;20552;-84
2021/10/15 05:40:11;;;;;;;14.35;12.82;;;13.30;99.90;;;;;;5128917;27;20227;-84
2021/10/15 05:42:52;;;;;;;19.83;13.52;;;13.30;99.90;;;;;;5126847;27;20231;-84
2021/10/15 05:45:26;;;;;;;15.13;12.93;;;13.30;99.90;;;;;;5116005;27;20327;-84
2021/10/15 05:47:53;;;;;;;16.90;14.15;;;13.30;99.90;;;;;;5125176;27;20225;-84
2021/10/15 05:50:31;;;;;;;14.45;12.50;;;13.30;99.90;;;;;;5121591;27;20226;-84
2021/10/15 05:53:05;;;;;;;17.67;13.63;;;13.30;99.90;;;;;;5130497;27;20231;-84
2021/10/15 06:01:12;;;;;;;19.20;14.80;;;13.30;99.90;;;;;;5128381;27;20339;-84
2021/10/15 06:03:41;;;;;;;17.95;15.38;;;13.30;99.90;;;;;;5129462;27;20576;-85
2021/10/15 06:14:34;;;;;;;14.88;13.32;;;13.40;99.90;;;;;;5083899;28;20337;-84
2021/10/15 06:17:06;;;;;;;19.65;13.25;;;13.40;99.90;;;;;;5134422;28;20266;-84
2021/10/15 06:19:42;;;;;;;17.08;13.55;;;13.20;99.90;;;;;;5126587;28;20219;-84
2021/10/15 06:22:09;;;;;;;18.02;14.13;;;13.50;99.90;;;;;;5139173;28;20212;-83
2021/10/15 06:24:38;;;;;;;17.30;13.05;;;13.50;99.90;;;;;;5131667;28;20218;-84
2021/10/15 06:27:05;;;;;;;17.52;14.88;;;13.40;99.90;;;;;;5126915;28;20181;-83
2021/10/15 06:29:32;;;;;;;16.50;14.23;;;13.40;99.90;;;;;;5134668;28;20220;-84
2021/10/15 06:32:00;;;;;;;20.63;15.88;;;13.40;99.90;;;;;;5132741;28;20187;-83
2021/10/15 06:34:37;;;;;;;18.42;15.80;;;13.40;99.90;;;;;;5141702;27;20219;-84
2021/10/15 06:37:04;;;;;;;24.75;14.57;;;13.40;99.90;;;;;;5140093;28;20217;-84
2021/10/15 06:39:31;;;;;;;21.35;16.05;;;13.40;99.90;;;;;;5133549;28;20229;-84
2021/10/15 06:41:59;;;;;;;22.67;17.38;;;13.40;99.90;;;;;;5121635;28;20189;-84
2021/10/15 06:44:26;;;;;;;18.63;15.82;;;13.40;99.90;;;;;;5141421;28;20232;-84
2021/10/15 06:46:54;;;;;;;21.60;16.92;;;13.30;99.90;;;;;;5140825;28;20204;-84
2021/10/15 06:49:21;;;;;;;23.92;18.75;;;13.30;99.90;;;;;;5138557;28;20239;-84
2021/10/15 06:51:48;;;;;;;29.27;23.25;;;13.20;99.90;;;;;;5153211;27;20200;-84
2021/10/15 06:54:16;;;;;;;23.15;19.45;;;13.20;99.90;;;;;;5135608;27;20591;-83
2021/10/15 06:56:43;;;;;;;24.45;20.50;;;13.10;99.90;;;;;;5117091;28;20210;-83
2021/10/15 06:59:12;;;;;;;29.95;22.58;;;13.00;99.90;;;;;;5135536;28;20219;-84
2021/10/15 07:01:39;;;;;;;32.40;23.42;;;12.90;99.90;;;;;;5124091;27;20204;-82
2021/10/15 07:04:06;;;;;;;33.78;20.85;;;13.00;99.90;;;;;;5124883;27;20211;-84
2021/10/15 07:06:34;;;;;;;18.60;12.32;;;13.00;99.90;;;;;;5121452;27;20206;-84
2021/10/15 07:09:03;;;;;;;17.92;13.95;;;12.90;99.90;;;;;;5131653;27;20223;-84
2021/10/15 07:11:34;;;;;;;8.38;4.35;;;12.80;99.90;;;;;;5124799;27;20199;-84
2021/10/15 07:14:01;;;;;;;5.40;3.55;;;12.70;99.90;;;;;;5149164;27;20186;-84
2021/10/15 07:16:30;;;;;;;3.65;2.25;;;12.60;99.90;;;;;;5138545;27;20199;-84
2021/10/15 07:18:57;;;;;;;4.03;2.15;;;12.50;99.90;;;;;;5139252;27;20284;-84
2021/10/15 07:21:24;;;;;;;5.50;2.80;;;12.50;99.90;;;;;;5126924;27;20199;-83
2021/10/15 07:23:52;;;;;;;2.38;1.65;;;12.50;99.90;;;;;;5126644;27;20200;-84
2021/10/15 07:26:20;;;;;;;4.10;1.85;;;12.50;99.90;;;;;;5138244;27;20223;-84
2021/10/15 07:28:47;;;;;;;8.07;2.65;;;12.50;99.90;;;;;;5130303;27;20223;-83
2021/10/15 07:31:20;;;;;;;4.18;1.67;;;12.40;99.90;;;;;;5135787;27;20291;-83
2021/10/15 07:33:49;;;;;;;7.05;2.80;;;12.40;99.90;;;;;;5140183;27;20182;-84
2021/10/15 07:36:18;;;;;;;3.65;1.60;;;12.40;99.90;;;;;;5143519;27;20184;-83
2021/10/15 07:39:00;;;;;;;4.53;1.90;;;12.50;99.90;;;;;;5139594;28;20224;-82
2021/10/15 07:41:27;;;;;;;11.30;5.10;;;12.60;99.90;;;;;;5147575;27;20233;-83
2021/10/15 07:46:45;;;;;;;18.52;7.75;;;12.60;99.90;;;;;;5143108;27;20190;-83
2021/10/15 07:49:21;;;;;;;5.75;2.25;;;12.60;99.90;;;;;;5140623;27;20314;-82
2021/10/15 07:51:48;;;;;;;5.15;1.55;;;12.60;99.90;;;;;;5122936;28;20202;-82
2021/10/15 07:54:15;;;;;;;4.68;1.92;;;12.50;99.90;;;;;;5125029;28;20210;-83
2021/10/15 07:56:42;;;;;;;4.65;1.48;;;12.50;99.90;;;;;;5140555;28;20214;-83
2021/10/15 07:59:12;;;;;;;3.85;1.77;;;12.50;99.90;;;;;;5140359;28;20268;-82
2021/10/15 08:01:39;;;;;;;3.30;1.40;;;12.50;99.90;;;;;;5124608;28;20200;-83
2021/10/15 08:04:06;;;;;;;2.97;1.60;;;12.50;99.90;;;;;;5151914;27;20297;-83
2021/10/15 08:06:35;;;;;;;7.10;1.05;;;12.40;99.90;;;;;;5132986;27;20222;-83
2021/10/15 08:09:02;;;;;;;4.25;1.40;;;12.40;99.90;;;;;;5131797;28;20231;-83
2021/10/15 08:11:30;;;;;;;7.13;2.90;;;12.40;99.90;;;;;;5140808;27;20309;-84
2021/10/15 08:13:57;;;;;;;7.03;1.90;;;12.40;99.90;;;;;;5141474;27;20187;-82
2021/10/15 08:16:24;;;;;;;3.17;1.48;;;12.40;99.90;;;;;;5140652;28;20232;-82
2021/10/15 08:18:52;;;;;;;5.07;2.03;;;12.50;99.90;;;;;;5150134;27;20202;-82
2021/10/15 08:21:20;;;;;;;3.58;1.55;;;12.40;99.90;;;;;;5146711;27;20201;-83
2021/10/15 08:23:50;;;;;;;4.70;1.45;;;12.40;99.90;;;;;;5133991;28;20200;-84
2021/10/15 08:26:18;;;;;;;6.22;2.45;;;12.40;99.90;;;;;;5143633;27;20223;-83
2021/10/15 08:28:47;;;;;;;3.92;2.25;;;12.40;99.90;;;;;;5140762;27;20223;-84
2021/10/15 08:31:15;;;;;;;5.50;1.95;;;12.40;99.90;;;;;;5136958;27;20231;-85
2021/10/15 08:33:43;;;;;;;6.55;2.22;;;12.50;99.90;;;;;;5129893;27;20199;-84
2021/10/15 08:36:10;;;;;;;6.03;2.53;;;12.40;99.90;;;;;;5121798;27;20212;-84
2021/10/15 08:38:37;;;;;;;7.35;2.60;;;12.60;99.90;;;;;;5125581;27;20235;-84
2021/10/15 08:41:06;;;;;;;5.82;1.85;;;12.50;99.90;;;;;;5129191;27;20218;-84
2021/10/15 08:43:35;;;;;;;3.88;2.10;;;12.50;99.90;;;;;;5126336;28;20192;-84
2021/10/15 08:46:02;;;;;;;5.60;2.45;;;12.50;99.90;;;;;;5125398;27;20204;-85
2021/10/15 08:48:30;;;;;;;6.32;2.60;;;12.50;99.90;;;;;;5125422;27;20227;-84
2021/10/15 08:50:58;;;;;;;3.97;2.15;;;12.40;99.90;;;;;;5140886;27;20210;-83
2021/10/15 08:53:26;;;;;;;2.80;1.90;;;12.40;99.90;;;;;;5138706;27;20247;-84
2021/10/15 08:55:53;;;;;;;9.90;3.22;;;12.40;99.90;;;;;;5138835;27;20195;-84
2021/10/15 08:58:39;;;;;;;3.55;1.60;;;12.30;99.90;;;;;;5132902;28;20190;-86
2021/10/15 09:01:06;;;;;;;4.47;1.80;;;12.40;99.90;;;;;;5127419;28;20204;-84
2021/10/15 09:03:34;;;;;;;8.77;2.25;;;12.40;99.90;;;;;;5126471;27;20254;-85
2021/10/15 09:06:04;;;;;;;5.50;1.90;;;12.40;99.90;;;;;;5129499;27;20224;-84
2021/10/15 09:08:46;;;;;;;9.48;1.98;;;12.40;99.90;;;;;;5117049;27;20210;-85
2021/10/15 09:11:28;;;;;;;2.85;1.40;;;12.40;99.90;;;;;;5126207;28;20266;-84
2021/10/15 09:14:12;;;;;;;7.80;3.67;;;12.40;99.90;;;;;;5124245;27;20653;-84
2021/10/15 09:17:01;;;;;;;5.10;1.70;;;12.50;99.90;;;;;;5123291;27;20621;-84
2021/10/15 09:19:30;;;;;;;11.18;3.13;;;12.40;99.90;;;;;;5129442;27;20225;-84
2021/10/15 09:22:22;;;;;;;7.78;2.58;;;12.40;99.90;;;;;;5133373;27;20197;-84
2021/10/15 09:24:52;;;;;;;5.25;3.25;;;12.60;99.90;;;;;;5099711;27;20204;-85
2021/10/15 09:27:26;;;;;;;2.25;1.20;;;12.60;99.90;;;;;;5140831;27;20196;-85
2021/10/15 09:29:57;;;;;;;7.35;2.13;;;12.60;99.90;;;;;;5126478;27;20212;-83
2021/10/15 09:32:26;;;;;;;5.60;2.80;;;12.60;99.90;;;;;;5130277;27;20251;-83
2021/10/15 09:34:54;;;;;;;9.27;4.70;;;12.60;99.90;;;;;;5125836;27;20200;-83
2021/10/15 09:37:24;;;;;;;4.25;2.50;;;13.00;99.90;;;;;;5125254;27;20228;-84
2021/10/15 09:39:52;;;;;;;7.07;3.50;;;13.80;99.90;;;;;;5110984;27;20218;-84
2021/10/15 09:42:29;;;;;;;6.33;2.40;;;15.40;99.90;;;;;;5116504;27;20200;-83
2021/10/15 09:45:12;;;;;;;6.03;1.93;;;17.10;99.90;;;;;;5122395;27;20441;-84
2021/10/15 09:47:40;;;;;;;5.07;3.17;;;18.40;99.90;;;;;;5117392;27;20485;-84
2021/10/15 09:50:09;;;;;;;4.90;2.77;;;19.40;99.90;;;;;;5122674;27;20455;-84
2021/10/15 09:52:42;;;;;;;5.10;2.20;;;19.90;99.90;;;;;;5117354;28;21982;-84
2021/10/15 09:55:16;;;;;;;8.80;3.07;;;20.10;99.90;;;;;;5119329;28;20527;-86
2021/10/15 09:57:45;;;;;;;8.13;7.10;;;20.20;99.90;;;;;;5138817;27;20518;-84
2021/10/15 10:00:16;;;;;;;13.57;3.30;;;20.30;99.90;;;;;;5117353;27;20510;-84
2021/10/15 10:02:44;;;;;;;8.47;2.90;;;20.60;99.90;;;;;;5122420;27;20872;-85
2021/10/15 10:05:14;;;;;;;5.80;3.80;;;21.00;99.90;;;;;;5115421;27;20865;-85
2021/10/15 10:07:42;;;;;;;8.23;3.20;;;20.40;99.90;;;;;;5120007;27;20531;-84
2021/10/15 10:10:12;;;;;;;9.07;3.37;;;20.00;99.90;;;;;;5119748;28;20495;-84
2021/10/15 10:12:41;;;;;;;6.80;3.37;;;20.20;99.90;;;;;;5131274;27;20502;-85
2021/10/15 10:15:10;;;;;;;11.13;3.57;;;20.20;99.90;;;;;;5114739;28;20467;-84
2021/10/15 10:17:46;;;;;;;7.10;3.37;;;20.10;99.90;;;;;;5127490;28;20452;-85
2021/10/15 10:20:16;;;;;;;9.70;4.40;;;20.10;99.90;;;;;;5117754;28;21030;-84
2021/10/15 10:22:51;;;;;;;6.77;2.67;;;19.70;99.90;;;;;;5126658;28;20431;-84
2021/10/15 10:25:25;;;;;;;8.83;3.30;;;19.10;99.90;;;;;;5118463;28;20488;-84
2021/10/15 10:27:57;;;;;;;11.20;3.80;;;18.70;99.90;;;;;;5121219;28;20431;-85
2021/10/15 10:30:37;;;;;;;10.33;3.27;;;18.00;99.90;;;;;;5121274;28;20487;-85
2021/10/15 10:33:06;;;;;;;12.03;3.47;;;17.60;99.90;;;;;;5134401;28;20567;-84
2021/10/15 10:35:34;;;;;;;9.13;3.23;;;17.10;99.90;;;;;;5134194;28;20519;-84
2021/10/15 10:38:38;;;;;;;8.83;3.60;;;16.70;99.90;;;;;;5140665;28;20513;-83
2021/10/15 10:41:28;;;;;;;10.33;3.23;;;16.50;99.90;;;;;;5138217;28;20443;-84
2021/10/15 10:44:14;;;;;;;13.02;3.20;;;16.80;99.90;;;;;;5138079;28;20456;-83
2021/10/15 10:47:12;;;;;;;10.80;3.20;;;16.90;99.90;;;;;;5130715;28;20186;-83
2021/10/15 10:49:44;;;;;;;8.83;3.53;;;17.10;99.90;;;;;;5134111;28;20478;-83
2021/10/15 10:52:15;;;;;;;12.63;2.90;;;17.10;99.90;;;;;;5137350;28;20462;-83
2021/10/15 10:54:48;;;;;;;8.73;4.10;;;17.30;99.90;;;;;;5137585;28;20452;-82
2021/10/15 10:57:19;;;;;;;14.33;3.53;;;17.50;99.90;;;;;;5133311;28;20455;-82
2021/10/15 10:59:47;;;;;;;14.40;3.13;;;17.60;99.90;;;;;;5118931;28;20465;-83
2021/10/15 11:02:17;;;;;;;11.53;2.90;;;17.50;99.90;;;;;;5124591;28;20468;-84
2021/10/15 11:05:00;;;;;;;8.63;2.60;;;17.50;99.90;;;;;;5127388;28;20499;-83
2021/10/15 11:07:29;;;;;;;12.80;3.10;;;17.50;99.90;;;;;;5129543;28;20450;-84
2021/10/15 11:10:03;;;;;;;7.97;2.87;;;17.50;99.90;;;;;;5137458;28;20461;-84
2021/10/15 11:13:01;;;;;;;10.00;3.03;;;17.70;99.90;;;;;;5126466;28;20499;-84
2021/10/15 11:15:33;;;;;;;12.10;3.30;;;17.60;99.90;;;;;;5120970;28;20873;-84
2021/10/15 11:18:12;;;;;;;14.57;4.30;;;17.10;99.90;;;;;;5123163;27;20450;-83
2021/10/15 11:20:40;;;;;;;9.30;3.70;;;16.60;99.90;;;;;;5126153;27;20826;-84
2021/10/15 11:23:10;;;;;;;8.50;2.45;;;16.20;99.90;;;;;;5134463;27;20439;-83
2021/10/15 11:25:39;;;;;;;9.25;3.08;;;15.90;99.90;;;;;;5125886;28;20199;-84
2021/10/15 11:28:09;;;;;;;11.80;3.28;;;15.90;99.90;;;;;;5149913;27;20198;-83
2021/10/15 11:30:39;;;;;;;10.15;4.18;;;16.10;99.90;;;;;;5137788;27;20315;-83
2021/10/15 11:33:08;;;;;;;13.02;4.40;;;16.00;99.90;;;;;;5132946;27;20211;-83
2021/10/15 11:35:36;;;;;;;14.18;3.92;;;15.80;99.90;;;;;;5127859;27;20208;-84
2021/10/15 11:38:07;;;;;;;8.75;2.80;;;15.70;99.90;;;;;;5121699;28;20208;-84
2021/10/15 11:40:38;;;;;;;11.23;2.95;;;15.50;99.90;;;;;;5128648;27;20546;-84
2021/10/15 11:43:14;;;;;;;8.30;2.63;;;15.30;99.90;;;;;;5127464;27;20214;-83
2021/10/15 11:45:43;;;;;;;12.73;2.85;;;15.40;99.90;;;;;;5132560;27;20194;-83
2021/10/15 11:48:12;;;;;;;15.25;3.08;;;15.60;99.90;;;;;;5130638;27;20259;-85
2021/10/15 11:50:43;;;;;;;17.33;4.50;;;15.60;99.90;;;;;;5133524;27;20199;-84
2021/10/15 11:53:13;;;;;;;14.15;4.30;;;15.80;99.90;;;;;;5129327;27;20212;-83
2021/10/15 11:55:41;;;;;;;10.50;3.45;;;16.00;99.90;;;;;;5122531;27;20216;-84
2021/10/15 11:58:38;;;;;;;21.25;4.60;;;16.10;99.90;;;;;;5127869;27;20204;-83
2021/10/15 12:01:19;;;;;;;11.63;4.50;;;16.20;99.90;;;;;;5124997;27;20193;-84
2021/10/15 12:03:58;;;;;;;16.13;4.60;;;16.10;99.90;;;;;;5127770;28;20189;-84
2021/10/15 12:06:28;;;;;;;12.80;3.22;;;16.20;99.90;;;;;;5126452;27;20201;-84
2021/10/15 12:09:00;;;;;;;6.75;2.90;;;16.40;99.90;;;;;;5125691;27;20235;-83
2021/10/15 12:11:33;;;;;;;6.50;3.05;;;16.50;98.90;;;;;;5136084;27;20223;-84
2021/10/15 12:14:02;;;;;;;12.57;3.20;;;16.40;97.50;;;;;;5135568;27;20200;-83
2021/10/15 12:16:32;;;;;;;8.95;2.25;;;16.30;97.60;;;;;;5127379;27;20198;-84
2021/10/15 12:19:11;;;;;;;14.85;2.92;;;16.40;97.00;;;;;;5125225;27;20224;-84
2021/10/15 12:21:41;;;;;;;8.75;2.78;;;16.50;95.90;;;;;;5122929;27;20199;-83
2021/10/15 12:24:12;;;;;;;20.55;3.35;;;16.40;96.30;;;;;;5133489;27;20282;-83
2021/10/15 12:26:39;;;;;;;16.00;3.70;;;16.40;97.30;;;;;;5111689;27;20203;-84
2021/10/15 12:29:26;;;;;;;11.98;2.25;;;16.40;95.70;;;;;;5126067;27;20231;-84
2021/10/15 12:32:18;;;;;;;8.88;2.47;;;16.30;95.40;;;;;;5128190;28;20212;-84
2021/10/15 12:34:53;;;;;;;9.50;2.50;;;16.10;95.60;;;;;;5131285;27;20225;-85
2021/10/15 12:37:35;;;;;;;8.23;2.78;;;16.00;96.60;;;;;;5135317;27;20703;-84
2021/10/15 12:40:12;;;;;;;10.35;2.83;;;16.10;97.20;;;;;;5136805;27;20370;-84
2021/10/15 12:42:40;;;;;;;6.50;2.70;;;16.10;96.70;;;;;;5113789;28;20215;-84
2021/10/15 12:45:10;;;;;;;10.63;3.35;;;16.00;97.50;;;;;;5126822;27;20264;-84
2021/10/15 12:47:37;;;;;;;10.93;2.73;;;15.90;98.20;;;;;;5124379;27;20209;-84
2021/10/15 12:50:06;;;;;;;12.48;2.40;;;15.90;96.80;;;;;;5130842;27;20535;-84
2021/10/15 12:52:35;;;;;;;9.75;2.42;;;15.90;95.00;;;;;;5121245;27;20220;-85
2021/10/15 12:55:33;;;;;;;8.45;3.00;;;15.70;95.30;;;;;;5128905;27;20194;-84
2021/10/15 12:58:06;;;;;;;12.85;3.75;;;15.70;96.00;;;;;;5125671;27;20641;-84
2021/10/15 13:00:50;;;;;;;12.63;3.05;;;15.80;96.70;;;;;;5134152;27;20244;-84
2021/10/15 13:03:17;;;;;;;9.73;3.00;;;15.60;96.60;;;;;;5123029;27;20328;-84
2021/10/15 13:09:07;;;;;;;11.02;3.10;;;15.40;97.40;;;;;;5122835;27;20265;-83
2021/10/15 13:14:59;;;;;;;13.18;3.88;;;15.40;99.20;;;;;;5097861;27;20293;-83
2021/10/15 13:17:28;;;;;;;5.35;2.13;;;15.70;99.40;;;;;;5128847;27;20205;-84
2021/10/15 13:19:59;;;;;;;11.75;3.35;;;15.70;99.10;;;;;;5125950;27;20234;-84
2021/10/15 13:22:33;;;;;;;7.90;3.25;;;15.90;99.40;;;;;;5097639;28;20192;-84
2021/10/15 13:25:01;;;;;;;11.50;3.13;;;15.90;99.40;;;;;;5132228;27;20202;-84
2021/10/15 13:27:30;;;;;;;13.07;3.97;;;15.80;99.90;;;;;;5117750;28;20201;-84
2021/10/15 13:29:59;;;;;;;9.18;3.42;;;15.60;99.90;;;;;;5128147;27;20241;-84
2021/10/15 13:32:26;;;;;;;14.52;3.70;;;15.40;99.90;;;;;;5117627;28;20210;-83
2021/10/15 13:35:05;;;;;;;12.45;4.10;;;15.20;99.90;;;;;;5142421;27;20201;-83
2021/10/15 13:37:35;;;;;;;10.73;5.10;;;15.10;99.90;;;;;;5133081;27;20189;-84
2021/10/15 13:40:03;;;;;;;11.30;3.10;;;15.10;99.90;;;;;;5140116;27;20220;-83
2021/10/15 13:45:44;;;;;;;10.10;3.00;;;14.90;99.90;;;;;;5126834;27;20204;-83
2021/10/15 13:50:56;;;;;;;10.70;3.08;;;15.10;99.90;;;;;;5117103;28;20201;-84
2021/10/15 13:53:26;;;;;;;7.47;2.38;;;15.10;99.90;;;;;;5123997;27;20606;-84
2021/10/15 13:55:55;;;;;;;10.73;3.72;;;15.10;99.90;;;;;;5111722;27;20671;-84
2021/10/15 13:58:26;;;;;;;12.32;3.00;;;15.20;99.90;;;;;;5129255;27;20256;-84
2021/10/15 14:00:59;;;;;;;9.95;3.08;;;15.30;99.90;;;;;;5120292;27;20201;-84
2021/10/15 14:06:11;;;;;;;6.15;2.42;;;15.50;99.90;;;;;;5122484;27;20204;-84
2021/10/15 14:08:38;;;;;;;7.97;2.30;;;15.70;99.60;;;;;;5126739;27;20213;-83